Time;durP1;ratioP1;P1;durP2;ratioP2;P2;SDS_P1;SDS_P2;PMS_P1;PMS_P2;Temp;Humidity;BMP_temperature;BMP_pressure;BME280_temperature;BME280_humidity;BME280_pressure;Samples;Min_cycle;Max_cycle;Signal;HPM_P1;HPM_P2
2023/03/16 00:03:33;;;;;;;24.30;14.00;;;;;;;-0.53;77.29;99028.55;221947;1273;22663;-73
2023/03/16 00:08:38;;;;;;;22.20;13.80;;;;;;;-0.59;77.21;99032.23;222057;1258;22553;-73
2023/03/16 00:13:50;;;;;;;21.50;13.50;;;;;;;-0.64;77.37;99032.83;222036;1274;22520;-74
2023/03/16 00:18:52;;;;;;;25.30;13.10;;;;;;;-0.70;77.97;99040.15;222017;1274;23235;-72
2023/03/16 00:23:55;;;;;;;24.30;14.40;;;;;;;-0.76;78.08;99038.65;222214;1251;25547;-73
2023/03/16 00:28:57;;;;;;;28.20;14.90;;;;;;;-0.80;77.83;99047.92;222092;1269;22535;-73
2023/03/16 00:34:01;;;;;;;25.40;15.80;;;;;;;-0.83;78.23;99049.73;222199;1272;22619;-74
2023/03/16 00:39:05;;;;;;;26.60;16.30;;;;;;;-0.87;78.50;99051.20;222022;1270;24311;-74
2023/03/16 00:44:14;;;;;;;25.90;15.30;;;;;;;-0.89;78.86;99053.83;222293;1268;22527;-73
2023/03/16 00:49:19;;;;;;;25.90;14.90;;;;;;;-0.93;78.99;99052.02;221972;1270;24349;-73
2023/03/16 00:54:23;;;;;;;30.70;16.50;;;;;;;-0.98;79.04;99050.80;222017;1272;22520;-74
2023/03/16 00:59:30;;;;;;;31.50;16.70;;;;;;;-1.02;78.95;99052.35;222213;1270;22520;-72
2023/03/16 01:04:38;;;;;;;31.40;17.70;;;;;;;-1.09;79.18;99051.40;222026;1268;24229;-73
2023/03/16 01:09:42;;;;;;;29.20;17.10;;;;;;;-1.14;79.23;99050.86;222294;1268;23182;-72
2023/03/16 01:14:46;;;;;;;31.00;18.10;;;;;;;-1.18;79.57;99058.28;222089;1274;24244;-74
2023/03/16 01:19:50;;;;;;;34.80;19.90;;;;;;;-1.23;79.78;99062.41;222036;1274;24272;-73
2023/03/16 01:24:54;;;;;;;39.50;21.20;;;;;;;-1.27;79.80;99066.88;222118;1274;22520;-73
2023/03/16 01:29:58;;;;;;;35.70;19.90;;;;;;;-1.30;80.25;99070.34;222046;1274;22527;-72
2023/03/16 01:35:01;;;;;;;29.20;18.00;;;;;;;-1.31;80.40;99074.20;222465;1251;25462;-74
2023/03/16 01:40:07;;;;;;;31.30;18.80;;;;;;;-1.29;80.60;99073.02;222414;1274;22594;-73
2023/03/16 01:45:49;;;;;;;35.50;18.80;;;;;;;-1.31;80.40;99070.77;222029;1274;25337;-72
2023/03/16 01:50:55;;;;;;;32.00;18.90;;;;;;;-1.36;80.66;99066.45;222242;1251;25389;-73
2023/03/16 01:56:07;;;;;;;33.80;19.10;;;;;;;-1.42;80.60;99067.20;221992;1273;22523;-73
2023/03/16 02:01:18;;;;;;;32.20;18.80;;;;;;;-1.47;80.74;99068.60;222151;1270;24207;-73
2023/03/16 02:06:22;;;;;;;28.70;18.40;;;;;;;-1.54;80.75;99074.61;222061;1270;22793;-73
2023/03/16 02:11:29;;;;;;;29.20;18.00;;;;;;;-1.60;81.10;99081.24;221966;1273;22531;-72
2023/03/16 02:16:50;;;;;;;28.00;16.90;;;;;;;-1.64;81.17;99087.88;222006;1273;22526;-73
2023/03/16 02:22:03;;;;;;;31.70;17.20;;;;;;;-1.67;81.17;99090.68;222053;1274;22540;-73
2023/03/16 02:27:15;;;;;;;33.60;17.60;;;;;;;-1.71;81.22;99098.22;222193;1274;22552;-73
2023/03/16 02:32:22;;;;;;;31.10;19.20;;;;;;;-1.75;81.45;99112.64;222056;1271;22523;-73
2023/03/16 02:37:32;;;;;;;30.70;17.70;;;;;;;-1.79;81.24;99121.22;222200;1274;24249;-76
2023/03/16 02:42:45;;;;;;;27.60;18.10;;;;;;;-1.83;81.85;99125.07;222346;1274;23398;-73
2023/03/16 02:47:52;;;;;;;30.30;19.20;;;;;;;-1.82;81.86;99126.23;222152;1271;23368;-72
2023/03/16 02:53:02;;;;;;;31.10;18.90;;;;;;;-1.83;82.01;99132.87;222121;1273;125308;-74
2023/03/16 02:58:05;;;;;;;34.70;20.20;;;;;;;-1.85;81.96;99134.88;222041;1273;26178;-73
2023/03/16 03:03:08;;;;;;;34.20;19.80;;;;;;;-1.87;82.21;99140.56;222006;1274;24863;-75
2023/03/16 03:08:21;;;;;;;36.50;20.50;;;;;;;-1.89;82.27;99151.86;222247;1272;24330;-74
2023/03/16 03:13:26;;;;;;;41.60;25.10;;;;;;;-1.90;82.53;99163.53;222050;1273;22539;-73
2023/03/16 03:18:29;;;;;;;47.20;25.30;;;;;;;-1.97;82.40;99169.55;222452;1274;24292;-73
2023/03/16 03:23:34;;;;;;;42.00;23.20;;;;;;;-2.07;82.04;99175.16;222238;1274;24277;-74
2023/03/16 03:28:36;;;;;;;38.70;22.10;;;;;;;-2.19;81.84;99179.03;222120;1274;24257;-73
2023/03/16 03:33:39;;;;;;;37.80;21.90;;;;;;;-2.30;81.61;99180.98;222261;1274;22523;-73
2023/03/16 03:38:43;;;;;;;34.20;20.70;;;;;;;-2.39;81.90;99189.69;222310;1270;22723;-74
2023/03/16 03:43:47;;;;;;;36.80;19.50;;;;;;;-2.47;82.06;99190.67;221895;1274;26863;-73
2023/03/16 03:48:51;;;;;;;32.00;19.70;;;;;;;-2.54;82.16;99191.27;222091;1258;25459;-73
2023/03/16 03:53:55;;;;;;;38.20;20.80;;;;;;;-2.54;82.51;99188.71;222014;1274;25557;-73
2023/03/16 03:59:17;;;;;;;37.20;21.10;;;;;;;-2.53;82.68;99195.38;222081;1273;22577;-72
2023/03/16 04:04:44;;;;;;;34.00;21.30;;;;;;;-2.55;82.63;99202.20;221977;1274;22553;-75
2023/03/16 04:09:47;;;;;;;37.30;21.20;;;;;;;-2.55;82.81;99205.63;222355;1273;23864;-73
2023/03/16 04:14:58;;;;;;;33.40;20.90;;;;;;;-2.54;82.80;99210.26;222145;1273;23010;-73
2023/03/16 04:20:14;;;;;;;35.70;20.30;;;;;;;-2.53;83.15;99209.13;222078;1274;25518;-72
2023/03/16 04:25:18;;;;;;;34.80;18.90;;;;;;;-2.55;82.60;99209.12;222516;1274;22585;-73
2023/03/16 04:30:22;;;;;;;29.20;17.70;;;;;;;-2.71;82.13;99205.59;222148;1273;24692;-73
2023/03/16 04:35:28;;;;;;;31.80;19.10;;;;;;;-2.81;82.27;99216.23;222023;1273;22676;-73
2023/03/16 04:40:35;;;;;;;33.60;18.20;;;;;;;-2.90;82.37;99219.17;221996;1274;22523;-72
2023/03/16 04:45:49;;;;;;;26.70;16.60;;;;;;;-2.99;82.31;99223.70;222257;1274;22694;-73
2023/03/16 04:50:52;;;;;;;30.90;16.90;;;;;;;-3.05;82.58;99230.28;222242;1267;22599;-72
2023/03/16 04:55:59;;;;;;;32.30;17.90;;;;;;;-3.09;82.94;99239.48;222070;1274;25587;-74
2023/03/16 05:01:02;;;;;;;35.70;20.70;;;;;;;-3.12;82.79;99244.67;222137;1273;24286;-73
2023/03/16 05:06:06;;;;;;;38.00;23.60;;;;;;;-3.14;82.93;99249.94;222284;1268;22551;-74
2023/03/16 05:11:12;;;;;;;35.50;23.60;;;;;;;-3.15;83.00;99253.29;222055;1274;26340;-73
2023/03/16 05:16:25;;;;;;;39.50;23.40;;;;;;;-3.15;83.27;99254.00;222111;1274;25560;-73
2023/03/16 05:21:30;;;;;;;39.40;24.20;;;;;;;-3.15;83.35;99256.75;222090;1271;25198;-72
2023/03/16 05:26:39;;;;;;;42.90;24.60;;;;;;;-3.13;83.33;99267.11;221968;1274;22566;-73
2023/03/16 05:31:47;;;;;;;43.60;26.00;;;;;;;-3.08;83.55;99273.33;222058;1268;22572;-73
2023/03/16 05:36:54;;;;;;;43.70;25.30;;;;;;;-2.98;83.89;99277.59;222068;1273;24015;-74
2023/03/16 05:41:58;;;;;;;41.60;24.80;;;;;;;-2.85;83.93;99280.95;222234;1270;22527;-71
2023/03/16 05:47:35;;;;;;;38.10;24.00;;;;;;;-2.71;84.17;99283.16;222281;1270;22575;-71
2023/03/16 05:52:53;;;;;;;37.70;24.00;;;;;;;-2.57;83.72;99291.48;222181;1274;25421;-73
2023/03/16 05:58:07;;;;;;;36.70;23.00;;;;;;;-2.44;83.81;99295.52;222231;1268;24417;-72
2023/03/16 06:03:16;;;;;;;39.00;22.20;;;;;;;-2.27;83.91;99308.08;222296;1260;27607;-73
2023/03/16 06:08:22;;;;;;;42.00;24.80;;;;;;;-2.06;84.06;99312.66;222038;1274;22526;-73
2023/03/16 06:13:26;;;;;;;38.50;22.10;;;;;;;-1.85;83.97;99315.77;222149;1255;24529;-72
2023/03/16 06:18:28;;;;;;;37.50;22.30;;;;;;;-1.69;83.82;99319.27;222043;1273;25417;-72
2023/03/16 06:23:31;;;;;;;39.50;23.50;;;;;;;-1.59;83.78;99327.44;222079;1273;24254;-72
2023/03/16 06:28:35;;;;;;;39.40;21.70;;;;;;;-1.53;83.57;99334.12;222026;1274;22542;-73
2023/03/16 06:33:37;;;;;;;33.40;19.50;;;;;;;-1.49;83.37;99335.59;222299;1274;22569;-73
2023/03/16 06:38:40;;;;;;;34.80;20.10;;;;;;;-1.45;83.21;99339.46;222298;1270;23716;-73
2023/03/16 06:44:10;;;;;;;34.50;20.80;;;;;;;-1.36;82.98;99341.35;222124;1274;24235;-74
2023/03/16 06:49:37;;;;;;;30.20;19.50;;;;;;;-1.34;82.96;99344.48;222450;1257;22998;-77
2023/03/16 06:54:52;;;;;;;32.80;20.40;;;;;;;-1.28;82.77;99358.60;223968;1259;22531;-72
2023/03/16 06:59:56;;;;;;;33.70;20.30;;;;;;;-1.16;82.53;99362.83;222335;1270;23280;-73
2023/03/16 07:05:00;;;;;;;30.10;19.00;;;;;;;-0.97;82.80;99363.81;222742;1251;26302;-73
2023/03/16 07:10:03;;;;;;;31.60;18.00;;;;;;;-0.82;82.59;99361.05;222977;1255;25552;-75
2023/03/16 07:15:07;;;;;;;28.50;17.90;;;;;;;-0.69;82.50;99367.99;222570;1262;22524;-75
2023/03/16 07:20:11;;;;;;;27.00;17.00;;;;;;;-0.56;82.56;99369.90;222645;1255;22526;-74
2023/03/16 07:25:20;;;;;;;28.40;17.30;;;;;;;-0.39;82.55;99368.03;222613;1268;25416;-74
2023/03/16 07:30:25;;;;;;;31.00;17.60;;;;;;;-0.20;82.39;99373.66;222483;1255;22599;-74
2023/03/16 07:35:28;;;;;;;28.00;17.70;;;;;;;-0.03;82.58;99376.23;222877;1252;22551;-72
2023/03/16 07:40:51;;;;;;;24.50;17.10;;;;;;;0.18;82.29;99382.56;222746;1263;22786;-74
2023/03/16 07:45:55;;;;;;;30.70;16.00;;;;;;;0.41;82.23;99382.31;222265;1265;22573;-70
2023/03/16 07:50:59;;;;;;;25.00;14.40;;;;;;;0.67;82.33;99377.31;222368;1259;22584;-71
2023/03/16 07:56:02;;;;;;;25.20;14.50;;;;;;;0.92;82.18;99373.95;222169;1267;24226;-71
2023/03/16 08:01:09;;;;;;;20.00;13.30;;;;;;;1.15;82.09;99381.23;222173;1270;22577;-72
2023/03/16 08:06:12;;;;;;;20.60;12.10;;;;;;;1.39;81.69;99386.60;222161;1269;22517;-71
2023/03/16 08:11:14;;;;;;;21.60;13.20;;;;;;;1.63;81.71;99385.74;222185;1270;22576;-69
2023/03/16 08:16:26;;;;;;;18.40;11.60;;;;;;;1.89;81.39;99393.89;222261;1273;22972;-69
2023/03/16 08:21:29;;;;;;;22.70;12.00;;;;;;;2.10;80.95;99397.04;222262;1255;22501;-71
2023/03/16 08:26:32;;;;;;;19.40;11.00;;;;;;;2.31;80.82;99393.46;222186;1270;22591;-74
2023/03/16 08:31:52;;;;;;;27.10;11.80;;;;;;;2.58;80.54;99397.48;222364;1264;22519;-72
2023/03/16 08:37:13;;;;;;;23.10;10.70;;;;;;;2.91;80.09;99399.34;222738;1262;23296;-74
2023/03/16 08:42:19;;;;;;;13.40;8.90;;;;;;;3.27;79.56;99398.39;222383;1259;25328;-75
2023/03/16 08:47:28;;;;;;;14.70;8.90;;;;;;;3.58;78.83;99406.65;222861;1256;22642;-74
2023/03/16 08:52:35;;;;;;;9.40;6.50;;;;;;;3.78;78.12;99406.66;222397;1251;25320;-74
2023/03/16 08:57:38;;;;;;;10.80;7.80;;;;;;;3.86;77.06;99413.30;222414;1267;22703;-71
2023/03/16 09:02:54;;;;;;;13.70;7.60;;;;;;;3.94;77.06;99416.79;222008;1258;22635;-73
2023/03/16 09:07:58;;;;;;;14.80;7.50;;;;;;;4.10;77.11;99421.52;222213;1269;24255;-73
2023/03/16 09:13:01;;;;;;;12.50;7.80;;;;;;;4.28;76.51;99421.71;222057;1269;23276;-74
2023/03/16 09:18:04;;;;;;;14.60;6.30;;;;;;;4.45;75.90;99422.52;222163;1272;25249;-74
2023/03/16 09:23:06;;;;;;;10.70;6.10;;;;;;;4.67;75.97;99422.98;222081;1268;24371;-74
2023/03/16 09:28:08;;;;;;;11.80;6.00;;;;;;;4.96;75.22;99424.41;222092;1260;25481;-74
2023/03/16 09:33:11;;;;;;;6.80;4.20;;;;;;;5.30;74.59;99421.86;222156;1273;22559;-74
2023/03/16 09:38:13;;;;;;;3.70;2.30;;;;;;;5.71;74.08;99426.65;222144;1269;22752;-76
2023/03/16 09:43:22;;;;;;;4.70;2.40;;;;;;;5.99;71.94;99421.88;223896;1266;22709;-77
2023/03/16 09:48:31;;;;;;;5.80;2.60;;;;;;;6.26;71.30;99419.59;223122;1252;24364;-77
2023/03/16 09:53:39;;;;;;;5.90;2.20;;;;;;;6.28;69.72;99430.27;222588;1265;24235;-74
2023/03/16 09:58:42;;;;;;;5.90;2.90;;;;;;;6.13;68.63;99426.63;222538;1274;22643;-75
2023/03/16 10:04:20;;;;;;;3.70;1.80;;;;;;;6.23;68.65;99426.59;222651;1269;22649;-76
2023/03/16 10:09:26;;;;;;;6.10;2.40;;;;;;;6.33;68.08;99430.80;222422;1274;22487;-78
2023/03/16 10:14:53;;;;;;;4.80;2.10;;;;;;;6.53;67.45;99433.52;222617;1274;23783;-75
2023/03/16 10:20:00;;;;;;;6.10;2.00;;;;;;;6.66;65.60;99433.30;222718;1269;22606;-75
2023/03/16 10:25:22;;;;;;;7.10;2.70;;;;;;;6.64;65.86;99435.27;222945;1262;22523;-74
2023/03/16 10:30:28;;;;;;;9.20;2.80;;;;;;;6.43;64.74;99438.64;222511;1268;22568;-74
2023/03/16 10:35:48;;;;;;;11.70;3.30;;;;;;;6.23;65.16;99440.35;223180;1255;25234;-75
2023/03/16 10:40:51;;;;;;;4.20;2.40;;;;;;;6.49;65.55;99444.05;222786;1260;25360;-75
2023/03/16 10:46:00;;;;;;;5.30;2.60;;;;;;;6.39;64.20;99440.29;222623;1269;22520;-75
2023/03/16 10:51:11;;;;;;;7.20;2.50;;;;;;;6.23;64.71;99442.86;223256;1258;22523;-75
2023/03/16 10:56:24;;;;;;;6.20;2.50;;;;;;;6.42;65.09;99435.63;222517;1260;25307;-75
2023/03/16 11:01:28;;;;;;;6.20;2.50;;;;;;;6.67;64.90;99438.23;222577;1269;22537;-74
2023/03/16 11:06:32;;;;;;;8.70;2.80;;;;;;;6.69;64.57;99438.42;222599;1267;22669;-74
2023/03/16 11:11:35;;;;;;;6.90;2.50;;;;;;;6.62;63.59;99440.67;222525;1269;22537;-74
2023/03/16 11:17:16;;;;;;;4.60;2.80;;;;;;;6.64;63.66;99437.97;222566;1272;22644;-75
2023/03/16 11:22:22;;;;;;;5.50;2.50;;;;;;;6.86;64.39;99435.71;222410;1271;24226;-74
2023/03/16 11:27:50;;;;;;;6.50;2.70;;;;;;;7.06;63.26;99438.32;222503;1274;22547;-78
2023/03/16 11:33:35;;;;;;;5.70;2.10;;;;;;;7.02;62.56;99438.01;222600;1268;23990;-78
2023/03/16 11:39:25;;;;;;;7.20;1.90;;;;;;;7.20;62.25;99424.30;222488;1274;24187;-77
2023/03/16 11:44:35;;;;;;;5.70;1.80;;;;;;;7.20;60.35;99429.94;222608;1267;22671;-78
2023/03/16 11:49:50;;;;;;;6.70;1.90;;;;;;;6.95;59.34;99424.89;222548;1267;25266;-77
2023/03/16 11:55:23;;;;;;;10.50;2.90;;;;;;;6.65;59.92;99426.00;223793;1265;22566;-77
2023/03/16 12:01:25;;;;;;;6.50;2.20;;;;;;;6.43;60.91;99426.23;222730;1271;22524;-77
2023/03/16 12:07:24;;;;;;;7.10;2.30;;;;;;;6.81;61.46;99424.86;221480;1282;22560;-77
2023/03/16 12:13:06;;;;;;;6.60;2.30;;;;;;;7.03;60.79;99421.77;223096;1272;22738;-77
2023/03/16 12:18:20;;;;;;;9.00;2.20;;;;;;;7.18;60.86;99417.92;221898;1275;24096;-78
2023/03/16 12:23:51;;;;;;;3.70;1.70;;;;;;;7.23;60.08;99417.55;222411;1269;22657;-80
2023/03/16 12:28:56;;;;;;;;;;;;;;;7.24;58.41;99415.04;222175;1272;25855;-77
2023/03/16 12:34:36;;;;;;;9.20;2.20;;;;;;;7.24;58.33;99419.40;221905;1274;123805;-78
2023/03/16 12:40:16;;;;;;;5.60;2.00;;;;;;;7.04;58.09;99413.88;221872;1257;24379;-78
2023/03/16 12:45:42;;;;;;;6.40;2.00;;;;;;;6.97;59.37;99411.50;222019;1271;22586;-78
2023/03/16 12:50:57;;;;;;;6.70;1.90;;;;;;;7.21;59.46;99405.17;221983;1272;137417;-78
2023/03/16 12:56:08;;;;;;;5.10;1.70;;;;;;;7.53;59.24;99402.18;221733;1272;137546;-78
2023/03/16 13:01:17;;;;;;;7.20;2.00;;;;;;;7.60;57.39;99403.86;221921;1264;137525;-78
2023/03/16 13:06:22;;;;;;;4.10;1.80;;;;;;;7.50;56.87;99404.06;222346;1272;138350;-81
2023/03/16 13:11:51;;;;;;;8.20;2.10;;;;;;;7.37;57.23;99406.92;223352;1275;137974;-80
2023/03/16 13:17:07;;;;;;;4.70;1.90;;;;;;;7.28;57.10;99408.68;222124;1259;137965;-80
2023/03/16 13:22:50;;;;;;;5.20;1.80;;;;;;;7.26;57.13;99412.00;221502;1276;137424;-80
2023/03/16 13:27:57;;;;;;;5.20;2.30;;;;;;;7.32;57.61;99409.83;221512;1266;137436;-72
2023/03/16 13:33:13;;;;;;;4.70;1.80;;;;;;;7.43;56.87;99404.67;221757;1279;22564;-76
2023/03/16 13:38:17;;;;;;;4.70;2.00;;;;;;;7.51;56.44;99404.16;222150;1269;138070;-76
2023/03/16 13:43:35;;;;;;;6.20;1.60;;;;;;;7.60;55.96;99400.00;221592;1277;137211;-80
2023/03/16 13:48:42;;;;;;;5.70;1.50;;;;;;;7.60;55.70;99396.12;222122;1269;137680;-81
2023/03/16 13:54:05;;;;;;;5.80;1.80;;;;;;;7.62;55.31;99397.71;221999;1271;136444;-81
2023/03/16 13:59:18;;;;;;;6.10;1.50;;;;;;;7.76;55.04;99398.53;222029;1273;137601;-82
2023/03/16 14:04:32;;;;;;;3.40;1.40;;;;;;;7.93;54.81;99392.77;221945;1270;137806;-81
2023/03/16 14:09:35;;;;;;;6.60;2.00;;;;;;;8.17;54.95;99391.77;222109;1275;22559;-78
2023/03/16 14:14:44;;;;;;;4.60;1.70;;;;;;;8.30;54.56;99394.45;221913;1271;137384;-81
2023/03/16 14:19:50;;;;;;;3.50;1.50;;;;;;;8.41;54.20;99394.36;221575;1277;137856;-75
2023/03/16 14:24:59;;;;;;;3.50;1.60;;;;;;;8.36;53.62;99391.20;222033;1271;137892;-73
2023/03/16 14:30:17;;;;;;;3.20;1.70;;;;;;;8.24;53.88;99385.95;222074;1264;138834;-73
2023/03/16 14:35:41;;;;;;;3.70;1.70;;;;;;;8.25;53.80;99384.98;221763;1268;137709;-74
2023/03/16 14:41:11;;;;;;;;;;;;;;;;;;;;;
2023/03/16 14:46:36;;;;;;;5.30;1.80;;;;;;;8.18;51.66;99388.16;221285;1272;138298;-73
2023/03/16 14:51:44;;;;;;;3.50;1.60;;;;;;;8.13;52.17;99387.04;217483;1264;5378761;-72
2023/03/16 14:57:04;;;;;;;3.60;1.50;;;;;;;8.14;52.06;99381.88;221757;1268;22657;-78
2023/03/16 15:02:15;;;;;;;3.00;1.90;;;;;;;8.17;51.77;99388.75;221472;1278;22529;-76
2023/03/16 15:07:27;;;;;;;3.90;1.60;;;;;;;8.05;51.72;99389.32;221343;1279;22530;-76
2023/03/16 15:12:33;;;;;;;1.80;1.10;;;;;;;7.77;51.05;99395.11;221603;1273;23204;-75
2023/03/16 15:17:36;;;;;;;5.10;1.50;;;;;;;7.52;51.35;99397.11;221167;1272;25284;-75
2023/03/16 15:22:39;;;;;;;3.40;1.50;;;;;;;7.31;51.69;99403.59;221276;1279;24380;-75
2023/03/16 15:27:43;;;;;;;3.40;1.90;;;;;;;7.07;51.49;99401.41;221380;1277;24617;-75
2023/03/16 15:32:48;;;;;;;5.10;1.70;;;;;;;6.89;51.77;99401.16;221346;1279;22890;-76
2023/03/16 15:37:52;;;;;;;7.10;1.90;;;;;;;6.72;52.55;99399.48;221135;1268;24249;-75
2023/03/16 15:43:00;;;;;;;5.80;2.40;;;;;;;6.59;52.93;99402.10;221501;1279;22526;-76
2023/03/16 15:48:04;;;;;;;7.80;1.90;;;;;;;6.45;53.17;99398.10;221417;1274;23232;-75
2023/03/16 15:53:49;;;;;;;3.40;1.90;;;;;;;6.30;53.10;99400.74;221437;1279;25247;-75
2023/03/16 15:58:52;;;;;;;5.30;2.60;;;;;;;6.13;53.70;99399.54;221399;1279;22585;-75
2023/03/16 16:03:54;;;;;;;5.90;3.10;;;;;;;6.02;53.86;99402.54;221144;1276;25331;-76
2023/03/16 16:08:57;;;;;;;20.50;12.80;;;;;;;5.92;54.51;99404.98;221434;1279;26372;-76
2023/03/16 16:14:02;;;;;;;7.50;4.20;;;;;;;5.82;55.10;99406.07;221342;1279;22533;-75
2023/03/16 16:19:05;;;;;;;6.40;3.60;;;;;;;5.71;55.05;99416.76;221325;1279;22683;-75
2023/03/16 16:24:09;;;;;;;9.50;3.70;;;;;;;5.56;55.46;99417.72;221293;1270;22612;-75
2023/03/16 16:29:21;;;;;;;7.30;3.50;;;;;;;5.39;55.82;99423.17;221342;1264;25478;-75
2023/03/16 16:34:25;;;;;;;8.90;3.70;;;;;;;5.22;55.86;99427.29;221332;1279;22596;-75
2023/03/16 16:39:35;;;;;;;8.70;3.50;;;;;;;5.06;56.23;99427.76;221493;1278;26450;-74
2023/03/16 16:44:38;;;;;;;7.40;3.50;;;;;;;4.88;56.37;99430.61;221096;1279;25258;-74
2023/03/16 16:49:50;;;;;;;7.90;4.00;;;;;;;4.69;56.55;99431.73;221334;1278;23162;-75
2023/03/16 16:54:55;;;;;;;11.90;5.10;;;;;;;4.50;56.59;99427.27;221362;1279;22540;-75
2023/03/16 16:59:58;;;;;;;10.70;4.70;;;;;;;4.33;56.70;99429.54;221397;1273;22530;-74
2023/03/16 17:05:00;;;;;;;10.30;5.20;;;;;;;4.15;57.06;99431.94;221501;1271;25257;-74
2023/03/16 17:10:03;;;;;;;10.70;5.30;;;;;;;3.97;57.22;99436.75;221398;1262;25284;-74
2023/03/16 17:15:20;;;;;;;12.80;5.50;;;;;;;3.81;57.66;99445.91;221320;1274;23367;-77
2023/03/16 17:20:33;;;;;;;12.00;5.50;;;;;;;3.63;58.15;99456.38;221419;1271;25347;-74
2023/03/16 17:25:45;;;;;;;14.40;5.80;;;;;;;3.43;58.24;99452.61;221339;1262;22527;-74
2023/03/16 17:30:47;;;;;;;15.10;7.60;;;;;;;3.28;58.41;99453.86;221280;1273;22579;-74
2023/03/16 17:35:51;;;;;;;15.50;8.00;;;;;;;3.11;58.98;99452.48;221356;1276;22550;-74
2023/03/16 17:40:54;;;;;;;19.00;8.20;;;;;;;2.93;59.23;99450.48;221423;1279;24288;-75
2023/03/16 17:46:06;;;;;;;19.00;9.50;;;;;;;2.75;59.60;99450.19;221121;1276;26410;-74
2023/03/16 17:51:13;;;;;;;23.80;11.90;;;;;;;2.58;60.03;99453.77;221224;1276;22557;-75
2023/03/16 17:56:25;;;;;;;27.80;15.60;;;;;;;2.45;60.67;99461.27;221415;1279;22551;-74
2023/03/16 18:01:32;;;;;;;34.50;19.90;;;;;;;2.29;60.89;99458.98;221165;1278;22622;-74
2023/03/16 18:06:35;;;;;;;30.70;17.10;;;;;;;2.15;61.12;99457.65;221184;1279;25231;-74
2023/03/16 18:11:45;;;;;;;31.80;16.50;;;;;;;2.02;61.62;99462.48;221313;1279;25412;-75
2023/03/16 18:16:53;;;;;;;31.90;16.90;;;;;;;1.90;61.87;99467.46;221266;1279;22559;-74
2023/03/16 18:21:56;;;;;;;49.20;23.30;;;;;;;1.84;62.33;99469.09;221254;1279;22650;-74
2023/03/16 18:27:06;;;;;;;65.50;27.50;;;;;;;1.74;62.44;99471.90;221328;1279;25403;-74
2023/03/16 18:32:22;;;;;;;46.60;21.50;;;;;;;1.61;62.51;99474.67;221352;1278;22587;-74
2023/03/16 18:37:27;;;;;;;48.00;24.20;;;;;;;1.48;62.62;99482.02;221059;1279;22589;-74
2023/03/16 18:42:34;;;;;;;49.30;22.20;;;;;;;1.37;62.69;99486.34;221377;1279;22549;-75
2023/03/16 18:47:42;;;;;;;51.60;23.30;;;;;;;1.26;63.11;99482.13;221037;1277;22644;-74
2023/03/16 18:52:45;;;;;;;54.20;24.80;;;;;;;1.15;63.18;99488.09;221370;1272;22570;-75
2023/03/16 18:57:55;;;;;;;67.20;32.50;;;;;;;1.05;63.63;99489.48;221269;1271;22759;-74
2023/03/16 19:03:02;;;;;;;72.30;34.10;;;;;;;0.96;63.92;99496.60;221397;1278;22527;-74
2023/03/16 19:08:06;;;;;;;94.60;47.10;;;;;;;0.85;64.14;99493.38;221116;1279;22543;-74
2023/03/16 19:13:15;;;;;;;140.10;69.50;;;;;;;0.74;64.53;99497.30;221346;1277;24292;-74
2023/03/16 19:18:18;;;;;;;122.20;64.00;;;;;;;0.63;65.18;99500.70;221383;1277;23402;-74
2023/03/16 19:23:32;;;;;;;123.60;62.90;;;;;;;0.54;65.31;99501.01;221198;1279;22634;-72
2023/03/16 19:28:38;;;;;;;120.30;61.20;;;;;;;0.43;65.50;99500.72;221364;1279;23793;-73
2023/03/16 19:33:41;;;;;;;114.70;57.50;;;;;;;0.34;65.59;99504.41;221373;1271;25290;-74
2023/03/16 19:38:49;;;;;;;100.40;49.80;;;;;;;0.28;66.13;99511.64;221312;1274;22537;-75
2023/03/16 19:43:56;;;;;;;102.30;49.70;;;;;;;0.22;66.28;99510.45;221468;1276;22538;-74
2023/03/16 19:49:02;;;;;;;95.40;48.60;;;;;;;0.18;66.52;99518.39;221249;1276;24284;-73
2023/03/16 19:54:05;;;;;;;95.20;46.30;;;;;;;0.13;66.60;99518.20;221005;1276;22666;-74
2023/03/16 19:59:08;;;;;;;96.10;48.10;;;;;;;0.08;66.62;99522.37;221151;1256;22526;-74
2023/03/16 20:04:22;;;;;;;91.70;45.90;;;;;;;0.03;66.67;99522.88;221110;1262;25335;-73
2023/03/16 20:09:25;;;;;;;93.30;45.50;;;;;;;-0.03;67.26;99522.06;221232;1271;23339;-74
2023/03/16 20:14:32;;;;;;;92.20;44.70;;;;;;;-0.07;67.15;99524.40;221287;1279;22556;-73
2023/03/16 20:19:34;;;;;;;94.50;46.60;;;;;;;-0.12;67.81;99522.48;221190;1268;24235;-73
2023/03/16 20:24:37;;;;;;;106.60;51.10;;;;;;;-0.17;68.36;99521.65;221516;1273;22597;-74
2023/03/16 20:29:39;;;;;;;105.20;49.50;;;;;;;-0.22;68.14;99522.12;221308;1279;25275;-73
2023/03/16 20:34:45;;;;;;;104.50;50.70;;;;;;;-0.25;68.26;99523.04;221429;1277;24163;-73
2023/03/16 20:39:49;;;;;;;103.90;47.50;;;;;;;-0.29;68.14;99516.02;221356;1277;22556;-75
2023/03/16 20:44:52;;;;;;;100.00;48.10;;;;;;;-0.31;67.92;99518.20;221306;1279;22642;-74
2023/03/16 20:49:58;;;;;;;100.10;47.80;;;;;;;-0.32;68.42;99515.92;221258;1276;22656;-73
2023/03/16 20:55:00;;;;;;;137.50;64.80;;;;;;;-0.36;68.54;99517.83;221028;1279;22618;-74
2023/03/16 21:00:16;;;;;;;188.70;84.50;;;;;;;-0.39;68.79;99520.79;221108;1274;22650;-73
2023/03/16 21:05:19;;;;;;;146.80;65.70;;;;;;;-0.41;69.48;99520.08;221587;1279;24301;-75
2023/03/16 21:10:23;;;;;;;128.00;61.60;;;;;;;-0.46;69.88;99524.19;221400;1279;22603;-74
2023/03/16 21:15:29;;;;;;;157.10;76.80;;;;;;;-0.55;69.30;99526.40;221458;1274;22711;-74
2023/03/16 21:20:35;;;;;;;171.60;80.10;;;;;;;-0.68;69.54;99529.14;221104;1279;22675;-74
2023/03/16 21:25:46;;;;;;;172.50;82.90;;;;;;;-0.81;69.62;99522.34;221187;1279;23114;-74
2023/03/16 21:30:51;;;;;;;168.30;82.80;;;;;;;-0.92;69.64;99522.70;221113;1273;25318;-74
2023/03/16 21:35:55;;;;;;;167.20;78.40;;;;;;;-0.97;70.14;99523.92;221360;1279;22573;-74
2023/03/16 21:40:58;;;;;;;176.80;81.40;;;;;;;-1.02;70.39;99527.87;221129;1279;24568;-73
2023/03/16 21:46:01;;;;;;;173.10;78.50;;;;;;;-1.06;70.58;99531.03;221184;1279;22717;-73
2023/03/16 21:51:12;;;;;;;160.90;75.70;;;;;;;-1.09;70.86;99526.17;221412;1277;23622;-74
2023/03/16 21:56:17;;;;;;;160.00;75.30;;;;;;;-1.11;70.94;99520.30;221130;1274;25433;-74
2023/03/16 22:01:31;;;;;;;140.40;69.00;;;;;;;-1.15;71.43;99522.09;221341;1274;25032;-74
2023/03/16 22:06:34;;;;;;;152.10;71.30;;;;;;;-1.20;71.81;99518.27;221076;1279;24235;-74
2023/03/16 22:11:37;;;;;;;131.80;62.80;;;;;;;-1.26;71.67;99511.89;221083;1279;22594;-72
2023/03/16 22:16:40;;;;;;;154.60;76.70;;;;;;;-1.29;72.37;99509.12;221055;1279;25483;-74
2023/03/16 22:21:45;;;;;;;164.80;82.20;;;;;;;-1.32;72.36;99504.83;221133;1279;22539;-72
2023/03/16 22:26:49;;;;;;;163.20;80.40;;;;;;;-1.34;72.37;99508.79;221407;1277;25377;-73
2023/03/16 22:32:06;;;;;;;180.60;85.50;;;;;;;-1.38;72.66;99506.28;221274;1259;26749;-72
2023/03/16 22:37:12;;;;;;;156.40;74.40;;;;;;;-1.39;72.70;99498.77;221189;1279;24560;-72
2023/03/16 22:42:18;;;;;;;159.90;75.10;;;;;;;-1.38;73.02;99488.50;221392;1260;23761;-74
2023/03/16 22:47:41;;;;;;;124.10;62.60;;;;;;;-1.38;73.47;99482.11;221406;1279;22641;-74
2023/03/16 22:53:07;;;;;;;112.10;56.30;;;;;;;-1.41;73.15;99480.70;221417;1277;25519;-74
2023/03/16 22:58:17;;;;;;;106.60;52.50;;;;;;;-1.43;73.37;99474.61;221382;1274;23213;-73
2023/03/16 23:03:22;;;;;;;123.70;59.10;;;;;;;-1.46;73.56;99468.22;221168;1277;22614;-74
2023/03/16 23:08:25;;;;;;;154.50;69.90;;;;;;;-1.48;73.38;99476.97;221292;1279;22750;-74
2023/03/16 23:13:28;;;;;;;146.80;67.70;;;;;;;-1.51;73.38;99478.24;221314;1270;25419;-72
2023/03/16 23:18:31;;;;;;;143.50;66.40;;;;;;;-1.56;73.62;99473.85;221297;1256;22591;-73
2023/03/16 23:23:33;;;;;;;149.10;68.40;;;;;;;-1.60;73.64;99479.96;221339;1279;22760;-73
2023/03/16 23:28:35;;;;;;;130.30;62.80;;;;;;;-1.63;73.86;99488.83;221467;1277;24274;-74
2023/03/16 23:33:39;;;;;;;136.00;60.60;;;;;;;-1.68;73.50;99491.58;221101;1264;22617;-74
2023/03/16 23:38:42;;;;;;;137.40;63.30;;;;;;;-1.73;73.87;99496.85;221008;1276;24279;-73
2023/03/16 23:43:46;;;;;;;138.70;61.30;;;;;;;-1.78;73.75;99492.64;221415;1276;22537;-74
2023/03/16 23:48:52;;;;;;;131.70;64.40;;;;;;;-1.83;73.96;99496.91;221370;1279;22589;-73